• Join FlightAware (Why Join?)
  • Login
  • US Flag 
05:01AM EDT


 

Airport Tracker/Info


-or-


 

Live Flight TrackerFlight Track Log ✈ NASA909 ✈ 05-Jun-2013 ✈ KARA - KEFD

Flight Track Log - Related Links

Times and Time Zones

All times are in EDT time to prevent confusion due to time zone crossing. See the NASA909 flight status page for this flight to view local times or setup timezone preferences in your user account.

Time Position Orientation Groundspeed Altitude Reporting Facility
EDT Latitude Longitude Course Direction KTS MPH feet Rate Location/Type
04:13PM 30.0664 -92.2000 276° West 417 480 10,000  Level Houston Center
04:14PM 30.0814 -92.3458 277° West 470 541 10,000  Level Houston Center
04:15PM 30.1103 -92.5175 281° West 460 529 10,000 -1,260 Level Houston Center
04:16PM 29.9732 -92.4193 262° West  Level Estimated
04:16PM 30.1386 -92.6539 284° West 443 510 7,500  Level Houston Center
04:17PM 29.9600 -92.5262 262° West  Level Estimated
04:17PM 30.1597 -92.7756 281° West 393 452 5,800  Level Houston Center
04:18PM 29.9529 -92.5837 276° West  Level Estimated
04:18PM 30.1717 -92.8669 279° West 304 350 4,100  Level Houston Center
04:19PM 30.1822 -92.9547 278° West 285 328 3,000 -600 Descending Houston Center
04:20PM 30.1933 -93.0378 279° West 273 314 2,900 -240 Descending Houston Center
04:21PM 30.2458 -93.1119 309° West 267 307 2,600 -720 Descending Houston Center
04:22PM 30.2708 -93.1708 296° West 286 329 1,500 -540 Descending Houston Center
04:23PM 30.2214 -93.1267 142° Southeast 293 337 1,600 -300 Climbing Houston Center
04:24PM 30.2644 -93.1478 337° Northwest 232 267 1,000 -660 Descending Houston Center
04:25PM 30.2175 -93.1411 173° South 213 245 300 120 Descending Houston Center
04:26PM 30.2106 -93.1058 103° East 339 390 1,300 540 Climbing Houston Center
04:27PM 30.2681 -93.1419 332° Northwest 237 273 1,500 -480 Climbing Houston Center
04:28PM 30.2361 -93.1569 202° Southwest 222 255 300  Descending Houston Center
04:29PM 30.1967 -93.1106 135° Southeast 238 274 1,500 540 Climbing Houston Center
04:30PM 30.2564 -93.1283 346° North 244 281 1,500 -600 Level Houston Center
04:31PM 30.2381 -93.1583 235° Southwest 219 252 300 -300 Descending Houston Center
04:32PM 30.2008 -93.1164 136° Southeast 215 247 1,000 480 Climbing Houston Center
04:33PM 30.2614 -93.1344 346° North 227 261 1,300 -360 Climbing Houston Center
04:34PM 30.2256 -93.1492 200° South 215 247 300 -60 Descending Houston Center
04:36PM 30.1592 -93.1150 156° South 315 362 1,200 3,060 Climbing Houston Center
04:37PM 30.0567 -93.1025 174° South 399 459 7,300 4,200 Climbing Houston Center
04:38PM 30.0000 -93.2231 242° Southwest 444 511 9,900 1,620 Climbing Houston Center
04:38PM 29.9547 -93.3072 238° Southwest 452 520 9,900 -120 Level Houston Center
04:39PM 29.9339 -93.3711 249° West 432 497 9,800  Descending Houston Center
04:40PM 29.8908 -93.4933 248° West 413 475 9,900 60 Climbing Houston Center
04:41PM 29.8447 -93.6172 247° West 393 452 10,000  Climbing Houston Center
04:42PM 29.8047 -93.7275 247° West 397 457 9,900 -60 Descending Houston Center
04:43PM 29.8094 -93.8656 272° West 396 456 9,900  Level Houston Center
04:44PM 29.8083 -93.9767 269° West 395 455 9,900  Level Houston Center
04:45PM 29.8053 -94.1119 269° West 398 458 10,000 -1,740 Climbing Houston Center
04:46PM 29.8044 -94.2519 270° West 359 413 6,300 -1,920 Descending Houston Center
04:47PM 29.8036 -94.3486 269° West 268 308 6,000 -180 Descending Houston Center
04:48PM 29.8019 -94.4378 269° West 278 320 6,000 -360 Level Houston Center
04:49PM 29.8000 -94.5400 269° West 290 334 5,300 -720 Descending Houston Center
04:50PM 29.7997 -94.6383 270° West 306 352 4,500 -720 Descending Houston Center
04:51PM 29.7986 -94.7306 269° West 292 336 3,900 -480 Descending Houston Center
04:52PM 29.7961 -94.8097 268° West 273 314 3,700 -780 Descending Houston Center
04:53PM 29.7942 -94.8989 269° West 290 334 2,500 -840 Descending Houston Center
04:54PM 29.7925 -94.9908 269° West 286 329 2,000 -420 Descending Houston Center
04:54PM 29.7933 -95.0161 272° West 284 327 2,000  Level Houston Center
04:55PM 29.7925 -95.0822 269° West 261 300 2,000  Level Houston Center
04:55PM 29.7936 -95.0992 274° West 275 316 2,000  Level Houston Center
04:56PM 29.7725 -95.1594 248° West 226 260 2,000 -60 Level Houston Center
04:57PM 29.7122 -95.1667 186° South 213 245 1,900 -600 Descending Houston Center
04:58PM 29.6597 -95.1658 179° South 171 197 800 3,540 Descending Houston Center
05:00PM 29.6094 -95.1631 177° South 184 212 10,000 -180 Climbing Houston Center
05:00PM 29.5817 -95.1633 180° South 249 287 600 -8,820 Descending Houston Center
05:01PM 29.5314 -95.1533 170° South 199 229 900 1,020 Climbing Houston Center
05:01PM 29.5608 -95.0964 59° Northeast 300 345 1,700 540 Climbing Houston Center
05:02PM 29.5883 -95.0431 59° Northeast 269 310 1,500  Descending Houston Center
05:02PM 29.6156 -95.0319 20° North 267 307 1,700 60 Climbing Houston Center
05:03PM 29.6383 -95.0689 305° West 289 333 1,600 -120 Descending Houston Center
05:03PM 29.6467 -95.1169 281° West 322 371 1,600  Level Houston Center
05:04PM 29.6408 -95.1619 262° West 307 353 1,600  Level Houston Center
05:04PM 29.6064 -95.1581 174° South 283 326 1,600  Level Houston Center
05:05PM 29.6408 -95.1383 26° Northeast 205 236 1,600 -480 Level Houston Center
05:06PM 29.5839 -95.1631 201° Southwest 229 264 600 -720 Descending Houston Center